sensor_id;sensor_type;location;lat;lon;timestamp;pressure;altitude;pressure_sealevel;temperature;humidity
79138;BME280;68544;45.566;10.238;2023-06-22T00:00:43;64996.53;;;26.79;47.71
79138;BME280;68544;45.566;10.238;2023-06-22T00:03:09;64994.28;;;26.77;48.15
79138;BME280;68544;45.566;10.238;2023-06-22T00:05:35;64992.94;;;26.76;47.58
79138;BME280;68544;45.566;10.238;2023-06-22T00:08:04;64992.72;;;26.75;47.25
79138;BME280;68544;45.566;10.238;2023-06-22T00:10:30;64992.66;;;26.75;46.92
79138;BME280;68544;45.566;10.238;2023-06-22T00:12:55;64992.00;;;26.74;47.33
79138;BME280;68544;45.566;10.238;2023-06-22T00:15:21;64990.31;;;26.73;47.75
79138;BME280;68544;45.566;10.238;2023-06-22T00:17:46;64989.66;;;26.72;47.27
79138;BME280;68544;45.566;10.238;2023-06-22T00:20:11;64989.66;;;26.72;46.73
79138;BME280;68544;45.566;10.238;2023-06-22T00:22:37;64989.00;;;26.72;47.80
79138;BME280;68544;45.566;10.238;2023-06-22T00:25:08;64988.00;;;26.70;48.38
79138;BME280;68544;45.566;10.238;2023-06-22T00:27:34;64986.28;;;26.69;48.65
79138;BME280;68544;45.566;10.238;2023-06-22T00:30:00;64986.34;;;26.68;48.08
79138;BME280;68544;45.566;10.238;2023-06-22T00:32:25;64984.28;;;26.66;48.57
79138;BME280;68544;45.566;10.238;2023-06-22T00:34:51;64981.94;;;26.64;48.33
79138;BME280;68544;45.566;10.238;2023-06-22T00:37:16;64978.97;;;26.61;49.30
79138;BME280;68544;45.566;10.238;2023-06-22T00:39:42;64975.47;;;26.58;49.24
79138;BME280;68544;45.566;10.238;2023-06-22T00:42:08;64971.59;;;26.54;49.81
79138;BME280;68544;45.566;10.238;2023-06-22T00:44:33;64968.78;;;26.51;49.93
79138;BME280;68544;45.566;10.238;2023-06-22T00:46:58;64965.53;;;26.48;50.16
79138;BME280;68544;45.566;10.238;2023-06-22T00:49:25;64962.94;;;26.46;49.83
79138;BME280;68544;45.566;10.238;2023-06-22T00:51:50;64959.97;;;26.43;50.00
79138;BME280;68544;45.566;10.238;2023-06-22T00:54:17;64957.72;;;26.41;49.64
79138;BME280;68544;45.566;10.238;2023-06-22T00:56:51;64956.09;;;26.40;49.38
79138;BME280;68544;45.566;10.238;2023-06-22T00:59:17;64954.09;;;26.38;49.63
79138;BME280;68544;45.566;10.238;2023-06-22T01:01:43;64951.78;;;26.36;49.49
79138;BME280;68544;45.566;10.238;2023-06-22T01:04:08;64950.88;;;26.35;48.79
79138;BME280;68544;45.566;10.238;2023-06-22T01:06:38;64950.13;;;26.34;48.69
79138;BME280;68544;45.566;10.238;2023-06-22T01:09:15;64948.78;;;26.32;49.19
79138;BME280;68544;45.566;10.238;2023-06-22T01:11:45;64947.34;;;26.31;48.95
79138;BME280;68544;45.566;10.238;2023-06-22T01:14:39;64945.28;;;26.29;49.28
79138;BME280;68544;45.566;10.238;2023-06-22T01:17:08;64943.13;;;26.27;49.07
79138;BME280;68544;45.566;10.238;2023-06-22T01:19:44;64942.03;;;26.26;48.87
79138;BME280;68544;45.566;10.238;2023-06-22T01:22:15;64941.94;;;26.26;48.23
79138;BME280;68544;45.566;10.238;2023-06-22T01:30:07;64938.19;;;26.22;48.76
79138;BME280;68544;45.566;10.238;2023-06-22T01:32:37;64937.28;;;26.22;48.51
79138;BME280;68544;45.566;10.238;2023-06-22T01:35:05;64935.69;;;26.20;50.09
79138;BME280;68544;45.566;10.238;2023-06-22T01:37:32;64933.34;;;26.18;50.79
79138;BME280;68544;45.566;10.238;2023-06-22T01:39:58;64930.97;;;26.16;50.15
79138;BME280;68544;45.566;10.238;2023-06-22T01:42:24;64928.63;;;26.13;50.38
79138;BME280;68544;45.566;10.238;2023-06-22T01:44:52;64925.75;;;26.11;50.21
79138;BME280;68544;45.566;10.238;2023-06-22T01:47:18;64924.22;;;26.09;49.70
79138;BME280;68544;45.566;10.238;2023-06-22T01:49:44;64923.22;;;26.08;49.15
79138;BME280;68544;45.566;10.238;2023-06-22T01:52:10;64921.03;;;26.06;49.83
79138;BME280;68544;45.566;10.238;2023-06-22T01:54:36;64917.84;;;26.04;50.35
79138;BME280;68544;45.566;10.238;2023-06-22T01:57:02;64916.22;;;26.02;49.72
79138;BME280;68544;45.566;10.238;2023-06-22T01:59:28;64914.00;;;26.00;49.92
79138;BME280;68544;45.566;10.238;2023-06-22T02:02:09;64912.66;;;25.99;49.65
79138;BME280;68544;45.566;10.238;2023-06-22T02:04:46;64910.59;;;25.97;49.62
79138;BME280;68544;45.566;10.238;2023-06-22T02:07:14;64908.44;;;25.95;50.09
79138;BME280;68544;45.566;10.238;2023-06-22T02:09:44;64907.13;;;25.94;49.72
79138;BME280;68544;45.566;10.238;2023-06-22T02:12:11;64906.06;;;25.93;49.52
79138;BME280;68544;45.566;10.238;2023-06-22T02:14:38;64904.88;;;25.92;49.83
79138;BME280;68544;45.566;10.238;2023-06-22T02:17:04;64902.81;;;25.90;51.32
79138;BME280;68544;45.566;10.238;2023-06-22T02:19:35;64901.38;;;25.88;50.97
79138;BME280;68544;45.566;10.238;2023-06-22T02:22:01;64898.97;;;25.86;51.79
79138;BME280;68544;45.566;10.238;2023-06-22T02:24:26;64897.34;;;25.84;50.84
79138;BME280;68544;45.566;10.238;2023-06-22T02:26:51;64895.28;;;25.83;50.61
79138;BME280;68544;45.566;10.238;2023-06-22T02:29:16;64893.09;;;25.81;50.89
79138;BME280;68544;45.566;10.238;2023-06-22T02:31:42;64891.78;;;25.79;50.60
79138;BME280;68544;45.566;10.238;2023-06-22T02:34:08;64890.88;;;25.78;50.41
79138;BME280;68544;45.566;10.238;2023-06-22T02:36:33;64889.06;;;25.77;50.77
79138;BME280;68544;45.566;10.238;2023-06-22T02:38:59;64888.97;;;25.77;50.28
79138;BME280;68544;45.566;10.238;2023-06-22T02:41:26;64887.91;;;25.76;50.84
79138;BME280;68544;45.566;10.238;2023-06-22T02:43:52;64886.63;;;25.75;50.78
79138;BME280;68544;45.566;10.238;2023-06-22T02:46:17;64886.13;;;25.74;50.66
79138;BME280;68544;45.566;10.238;2023-06-22T02:48:43;64885.28;;;25.73;50.82
79138;BME280;68544;45.566;10.238;2023-06-22T02:51:08;64885.09;;;25.73;50.48
79138;BME280;68544;45.566;10.238;2023-06-22T02:53:34;64884.31;;;25.72;50.53
79138;BME280;68544;45.566;10.238;2023-06-22T02:56:03;64883.22;;;25.71;50.75
79138;BME280;68544;45.566;10.238;2023-06-22T02:58:32;64883.13;;;25.71;50.39
79138;BME280;68544;45.566;10.238;2023-06-22T03:01:06;64883.56;;;25.71;50.18
79138;BME280;68544;45.566;10.238;2023-06-22T03:03:31;64882.03;;;25.70;50.86
79138;BME280;68544;45.566;10.238;2023-06-22T03:05:56;64882.13;;;25.70;50.14
79138;BME280;68544;45.566;10.238;2023-06-22T03:08:22;64881.31;;;25.69;50.40
79138;BME280;68544;45.566;10.238;2023-06-22T03:10:47;64879.44;;;25.68;51.07
79138;BME280;68544;45.566;10.238;2023-06-22T03:13:12;64878.25;;;25.66;50.94
79138;BME280;68544;45.566;10.238;2023-06-22T03:15:38;64877.53;;;25.65;50.57
79138;BME280;68544;45.566;10.238;2023-06-22T03:18:03;64875.56;;;25.64;50.94
79138;BME280;68544;45.566;10.238;2023-06-22T03:20:28;64873.66;;;25.62;51.12
79138;BME280;68544;45.566;10.238;2023-06-22T03:22:58;64871.53;;;25.61;50.78
79138;BME280;68544;45.566;10.238;2023-06-22T03:25:23;64870.31;;;25.60;50.81
79138;BME280;68544;45.566;10.238;2023-06-22T03:27:49;64869.84;;;25.59;50.46
79138;BME280;68544;45.566;10.238;2023-06-22T03:30:14;64869.31;;;25.59;50.73
79138;BME280;68544;45.566;10.238;2023-06-22T03:32:39;64867.94;;;25.58;50.72
79138;BME280;68544;45.566;10.238;2023-06-22T03:35:04;64868.22;;;25.58;50.47
79138;BME280;68544;45.566;10.238;2023-06-22T03:37:31;64868.56;;;25.58;51.50
79138;BME280;68544;45.566;10.238;2023-06-22T03:39:56;64868.28;;;25.58;51.96
79138;BME280;68544;45.566;10.238;2023-06-22T03:42:21;64867.16;;;25.57;51.61
79138;BME280;68544;45.566;10.238;2023-06-22T03:44:47;64867.59;;;25.57;51.21
79138;BME280;68544;45.566;10.238;2023-06-22T03:47:12;64868.66;;;25.58;51.05
79138;BME280;68544;45.566;10.238;2023-06-22T03:49:38;64868.84;;;25.58;52.54
79138;BME280;68544;45.566;10.238;2023-06-22T03:52:03;64868.56;;;25.58;52.55
79138;BME280;68544;45.566;10.238;2023-06-22T03:54:29;64868.13;;;25.58;52.41
79138;BME280;68544;45.566;10.238;2023-06-22T03:56:54;64867.78;;;25.57;52.04
79138;BME280;68544;45.566;10.238;2023-06-22T03:59:20;64867.28;;;25.56;52.89
79138;BME280;68544;45.566;10.238;2023-06-22T04:01:45;64865.50;;;25.55;53.39
79138;BME280;68544;45.566;10.238;2023-06-22T04:04:11;64863.97;;;25.54;52.95
79138;BME280;68544;45.566;10.238;2023-06-22T04:06:36;64864.06;;;25.53;52.58
79138;BME280;68544;45.566;10.238;2023-06-22T04:09:02;64863.97;;;25.53;52.01
79138;BME280;68544;45.566;10.238;2023-06-22T04:11:27;64862.72;;;25.52;52.99
79138;BME280;68544;45.566;10.238;2023-06-22T04:13:52;64862.97;;;25.52;51.51
79138;BME280;68544;45.566;10.238;2023-06-22T04:16:18;64863.69;;;25.53;51.67
79138;BME280;68544;45.566;10.238;2023-06-22T04:18:43;64865.47;;;25.54;50.85
79138;BME280;68544;45.566;10.238;2023-06-22T04:21:09;64867.16;;;25.56;50.83
79138;BME280;68544;45.566;10.238;2023-06-22T04:23:34;64867.19;;;25.56;51.72
79138;BME280;68544;45.566;10.238;2023-06-22T04:26:00;64867.00;;;25.56;52.36
79138;BME280;68544;45.566;10.238;2023-06-22T04:28:25;64866.81;;;25.56;51.92
79138;BME280;68544;45.566;10.238;2023-06-22T04:30:50;64868.94;;;25.57;50.92
79138;BME280;68544;45.566;10.238;2023-06-22T04:33:16;64870.81;;;25.58;50.08
79138;BME280;68544;45.566;10.238;2023-06-22T04:35:41;64871.72;;;25.59;52.51
79138;BME280;68544;45.566;10.238;2023-06-22T04:38:07;64869.94;;;25.57;52.79
79138;BME280;68544;45.566;10.238;2023-06-22T04:40:32;64870.09;;;25.57;51.64
79138;BME280;68544;45.566;10.238;2023-06-22T04:42:58;64871.50;;;25.58;52.16
79138;BME280;68544;45.566;10.238;2023-06-22T04:45:27;64873.56;;;25.60;51.61
79138;BME280;68544;45.566;10.238;2023-06-22T04:47:52;64872.94;;;25.60;51.91
79138;BME280;68544;45.566;10.238;2023-06-22T04:50:17;64875.28;;;25.62;50.87
79138;BME280;68544;45.566;10.238;2023-06-22T04:52:46;64877.59;;;25.64;50.66
79138;BME280;68544;45.566;10.238;2023-06-22T04:55:11;64879.88;;;25.66;49.92
79138;BME280;68544;45.566;10.238;2023-06-22T04:57:36;64882.53;;;25.68;49.86
79138;BME280;68544;45.566;10.238;2023-06-22T05:00:04;64885.25;;;25.71;50.10
79138;BME280;68544;45.566;10.238;2023-06-22T05:02:38;64889.00;;;25.74;49.61
79138;BME280;68544;45.566;10.238;2023-06-22T05:05:04;64893.47;;;25.78;48.99
79138;BME280;68544;45.566;10.238;2023-06-22T05:07:32;64897.78;;;25.82;48.81
79138;BME280;68544;45.566;10.238;2023-06-22T05:09:57;64901.13;;;25.84;49.22
79138;BME280;68544;45.566;10.238;2023-06-22T05:12:22;64905.50;;;25.88;48.71
79138;BME280;68544;45.566;10.238;2023-06-22T05:14:47;64910.00;;;25.92;48.54
79138;BME280;68544;45.566;10.238;2023-06-22T05:17:13;64914.75;;;25.97;48.22
79138;BME280;68544;45.566;10.238;2023-06-22T05:19:38;64920.50;;;26.02;47.65
79138;BME280;68544;45.566;10.238;2023-06-22T05:22:03;64926.75;;;26.07;47.24
79138;BME280;68544;45.566;10.238;2023-06-22T05:24:29;64932.09;;;26.12;49.80
79138;BME280;68544;45.566;10.238;2023-06-22T05:26:54;64937.81;;;26.17;50.11
79138;BME280;68544;45.566;10.238;2023-06-22T05:29:20;64945.06;;;26.23;49.92
79138;BME280;68544;45.566;10.238;2023-06-22T05:31:47;64949.75;;;26.28;50.41
79138;BME280;68544;45.566;10.238;2023-06-22T05:34:12;64953.63;;;26.31;50.23
79138;BME280;68544;45.566;10.238;2023-06-22T05:36:37;64958.63;;;26.36;49.29
79138;BME280;68544;45.566;10.238;2023-06-22T05:39:10;64964.75;;;26.41;48.36
79138;BME280;68544;45.566;10.238;2023-06-22T05:41:36;60991.41;;;-142.84;100.00
79138;BME280;68544;45.566;10.238;2023-06-22T05:44:01;60991.41;;;-142.84;100.00
79138;BME280;68544;45.566;10.238;2023-06-22T05:46:27;60991.41;;;-142.84;100.00
79138;BME280;68544;45.566;10.238;2023-06-22T05:48:52;64973.88;;;26.49;46.23
79138;BME280;68544;45.566;10.238;2023-06-22T05:51:37;60991.41;;;-142.84;100.00
79138;BME280;68544;45.566;10.238;2023-06-22T05:54:10;60991.41;;;-142.84;100.00
79138;BME280;68544;45.566;10.238;2023-06-22T05:57:08;60991.41;;;-142.84;100.00
79138;BME280;68544;45.566;10.238;2023-06-22T05:59:34;60991.41;;;26.49;100.00
79138;BME280;68544;45.566;10.238;2023-06-22T06:02:00;60991.41;;;-142.84;100.00
79138;BME280;68544;45.566;10.238;2023-06-22T06:04:27;60991.41;;;-142.84;100.00
79138;BME280;68544;45.566;10.238;2023-06-22T06:07:51;60991.41;;;-142.84;100.00
79138;BME280;68544;45.566;10.238;2023-06-22T06:11:14;60991.41;;;-142.84;100.00
79138;BME280;68544;45.566;10.238;2023-06-22T06:14:17;60991.41;;;-142.84;100.00
79138;BME280;68544;45.566;10.238;2023-06-22T06:16:53;60991.41;;;-142.84;100.00
79138;BME280;68544;45.566;10.238;2023-06-22T06:19:24;60991.41;;;-142.84;100.00
79138;BME280;68544;45.566;10.238;2023-06-22T06:22:48;60991.41;;;-142.84;100.00
79138;BME280;68544;45.566;10.238;2023-06-22T06:26:09;60991.41;;;-142.84;100.00
79138;BME280;68544;45.566;10.238;2023-06-22T06:28:36;64973.88;;;26.49;46.23
79138;BME280;68544;45.566;10.238;2023-06-22T06:31:32;60991.41;;;-142.84;100.00
79138;BME280;68544;45.566;10.238;2023-06-22T06:34:27;48609.88;;;-142.84;46.23
79138;BME280;68544;45.566;10.238;2023-06-22T06:37:07;60991.41;;;-142.84;100.00
79138;BME280;68544;45.566;10.238;2023-06-22T06:39:37;60991.41;;;-142.84;100.00
79138;BME280;68544;45.566;10.238;2023-06-22T06:42:59;60991.41;;;-142.84;100.00
79138;BME280;68544;45.566;10.238;2023-06-22T06:46:17;60991.41;;;-142.84;100.00
79138;BME280;68544;45.566;10.238;2023-06-22T06:48:48;60991.41;;;-142.84;100.00
79138;BME280;68544;45.566;10.238;2023-06-22T06:51:20;60991.41;;;-142.84;100.00
79138;BME280;68544;45.566;10.238;2023-06-22T06:53:52;60991.41;;;-142.84;100.00
79138;BME280;68544;45.566;10.238;2023-06-22T06:56:20;60991.41;;;-142.84;100.00
79138;BME280;68544;45.566;10.238;2023-06-22T06:59:44;60991.41;;;-142.84;100.00
79138;BME280;68544;45.566;10.238;2023-06-22T07:02:26;60991.41;;;26.49;100.00
79138;BME280;68544;45.566;10.238;2023-06-22T07:05:33;75727.25;;;26.49;0.00
79138;BME280;68544;45.566;10.238;2023-06-22T07:08:53;60991.41;;;-142.84;100.00
79138;BME280;68544;45.566;10.238;2023-06-22T07:12:04;81548.72;;;26.49;100.00
79138;BME280;68544;45.566;10.238;2023-06-22T07:15:23;60991.41;;;-142.84;38.06
79138;BME280;68544;45.566;10.238;2023-06-22T07:18:31;60991.41;;;-142.84;100.00
79138;BME280;68544;45.566;10.238;2023-06-22T07:21:00;64973.88;;;26.49;46.23
79138;BME280;68544;45.566;10.238;2023-06-22T07:24:16;60991.41;;;-142.84;100.00
79138;BME280;68544;45.566;10.238;2023-06-22T07:27:43;60991.41;;;-142.84;100.00
79138;BME280;68544;45.566;10.238;2023-06-22T07:30:21;60991.41;;;-142.84;100.00
79138;BME280;68544;45.566;10.238;2023-06-22T07:33:00;60991.41;;;-142.84;100.00
79138;BME280;68544;45.566;10.238;2023-06-22T07:36:08;60991.41;;;-142.84;100.00
79138;BME280;68544;45.566;10.238;2023-06-22T07:39:14;115564.13;;;-142.84;0.00
79138;BME280;68544;45.566;10.238;2023-06-22T07:42:38;60991.41;;;-142.84;100.00
79138;BME280;68544;45.566;10.238;2023-06-22T07:45:37;60991.41;;;-142.84;100.00
79138;BME280;68544;45.566;10.238;2023-06-22T07:48:40;60991.41;;;26.49;100.00
79138;BME280;68544;45.566;10.238;2023-06-22T07:52:05;60991.41;;;-142.84;100.00
79138;BME280;68544;45.566;10.238;2023-06-22T07:55:28;60991.41;;;-142.84;100.00
79138;BME280;68544;45.566;10.238;2023-06-22T07:58:50;60991.41;;;-142.84;100.00
79138;BME280;68544;45.566;10.238;2023-06-22T08:01:53;60991.41;;;22.49;100.00
79138;BME280;68544;45.566;10.238;2023-06-22T08:04:18;65037.69;;;27.06;28.38
79138;BME280;68544;45.566;10.238;2023-06-22T08:06:43;65098.03;;;27.60;28.09
79138;BME280;68544;45.566;10.238;2023-06-22T08:09:09;65152.09;;;28.09;28.75
79138;BME280;68544;45.566;10.238;2023-06-22T08:11:34;65199.97;;;28.52;29.48
79138;BME280;68544;45.566;10.238;2023-06-22T08:13:59;65245.44;;;28.93;29.74
79138;BME280;68544;45.566;10.238;2023-06-22T08:16:24;65291.22;;;29.34;28.97
79138;BME280;68544;45.566;10.238;2023-06-22T08:18:50;65352.56;;;29.89;25.33
79138;BME280;68544;45.566;10.238;2023-06-22T08:21:15;65435.06;;;30.64;20.26
79138;BME280;68544;45.566;10.238;2023-06-22T08:23:40;60991.41;;;-142.84;100.00
79138;BME280;68544;45.566;10.238;2023-06-22T08:27:01;60991.41;;;-142.84;100.00
79138;BME280;68544;45.566;10.238;2023-06-22T08:30:25;60991.41;;;-142.84;100.00
79138;BME280;68544;45.566;10.238;2023-06-22T08:32:50;60991.41;;;-142.84;100.00
79138;BME280;68544;45.566;10.238;2023-06-22T08:35:15;65537.47;;;31.55;16.00
79138;BME280;68544;45.566;10.238;2023-06-22T08:37:40;65643.22;;;32.50;14.56
79138;BME280;68544;45.566;10.238;2023-06-22T08:40:07;65748.66;;;33.45;13.69
79138;BME280;68544;45.566;10.238;2023-06-22T08:42:36;65853.66;;;34.39;13.05
79138;BME280;68544;45.566;10.238;2023-06-22T08:45:01;65954.38;;;35.29;12.81
79138;BME280;68544;45.566;10.238;2023-06-22T08:47:27;66045.72;;;36.12;100.00
79138;BME280;68544;45.566;10.238;2023-06-22T08:49:53;66134.72;;;36.91;12.88
79138;BME280;68544;45.566;10.238;2023-06-22T08:52:18;66223.69;;;37.71;11.99
79138;BME280;68544;45.566;10.238;2023-06-22T08:54:45;66306.66;;;38.46;12.02
79138;BME280;68544;45.566;10.238;2023-06-22T08:57:10;66395.19;;;39.25;10.77
79138;BME280;68544;45.566;10.238;2023-06-22T08:59:35;66470.06;;;39.92;11.66
79138;BME280;68544;45.566;10.238;2023-06-22T09:02:00;66516.69;;;40.34;14.31
79138;BME280;68544;45.566;10.238;2023-06-22T09:04:25;66550.97;;;40.65;15.73
79138;BME280;68544;45.566;10.238;2023-06-22T09:06:51;66593.84;;;41.04;14.40
79138;BME280;68544;45.566;10.238;2023-06-22T09:09:17;66637.66;;;41.42;14.11
79138;BME280;68544;45.566;10.238;2023-06-22T09:11:42;66687.50;;;41.87;13.27
79138;BME280;68544;45.566;10.238;2023-06-22T09:14:08;66743.66;;;42.37;12.27
79138;BME280;68544;45.566;10.238;2023-06-22T09:16:34;66788.09;;;42.76;12.95
79138;BME280;68544;45.566;10.238;2023-06-22T09:18:59;66836.19;;;43.19;11.99
79138;BME280;68544;45.566;10.238;2023-06-22T09:21:24;66883.47;;;43.61;11.87
79138;BME280;68544;45.566;10.238;2023-06-22T09:23:49;66918.19;;;43.92;12.86
79138;BME280;68544;45.566;10.238;2023-06-22T09:26:19;66957.03;;;44.27;11.78
79138;BME280;68544;45.566;10.238;2023-06-22T09:28:44;66997.44;;;44.63;11.02
79138;BME280;68544;45.566;10.238;2023-06-22T09:31:09;67032.47;;;44.94;11.25
79138;BME280;68544;45.566;10.238;2023-06-22T09:33:35;67078.50;;;45.35;10.65
79138;BME280;68544;45.566;10.238;2023-06-22T09:36:00;67118.66;;;45.71;10.41
79138;BME280;68544;45.566;10.238;2023-06-22T09:38:25;67157.00;;;46.05;10.23
79138;BME280;68544;45.566;10.238;2023-06-22T09:40:50;67190.53;;;46.35;10.92
79138;BME280;68544;45.566;10.238;2023-06-22T09:43:16;67225.88;;;46.67;10.00
79138;BME280;68544;45.566;10.238;2023-06-22T09:45:42;67258.66;;;46.96;10.51
79138;BME280;68544;45.566;10.238;2023-06-22T09:48:07;67296.00;;;47.29;9.88
79138;BME280;68544;45.566;10.238;2023-06-22T09:50:32;67324.44;;;47.54;10.09
79138;BME280;68544;45.566;10.238;2023-06-22T09:52:57;67348.78;;;47.77;10.05
79138;BME280;68544;45.566;10.238;2023-06-22T09:55:22;67364.31;;;47.91;10.80
79138;BME280;68544;45.566;10.238;2023-06-22T09:57:48;67383.75;;;48.08;10.05
79138;BME280;68544;45.566;10.238;2023-06-22T10:00:14;67404.44;;;48.27;9.72
79138;BME280;68544;45.566;10.238;2023-06-22T10:02:43;67415.03;;;48.36;11.01
79138;BME280;68544;45.566;10.238;2023-06-22T10:05:08;67428.78;;;48.49;10.98
79138;BME280;68544;45.566;10.238;2023-06-22T10:07:34;67446.16;;;48.64;10.40
79138;BME280;68544;45.566;10.238;2023-06-22T10:09:59;67457.69;;;48.75;11.42
79138;BME280;68544;45.566;10.238;2023-06-22T10:12:25;67473.25;;;48.89;10.41
79138;BME280;68544;45.566;10.238;2023-06-22T10:14:50;67492.81;;;49.07;9.45
79138;BME280;68544;45.566;10.238;2023-06-22T10:17:15;67513.31;;;49.25;9.75
79138;BME280;68544;45.566;10.238;2023-06-22T10:19:41;67529.44;;;49.40;10.00
79138;BME280;68544;45.566;10.238;2023-06-22T10:22:06;67548.41;;;49.57;9.72
79138;BME280;68544;45.566;10.238;2023-06-22T10:24:31;67564.22;;;49.72;9.87
79138;BME280;68544;45.566;10.238;2023-06-22T10:26:57;67569.25;;;49.76;11.03
79138;BME280;68544;45.566;10.238;2023-06-22T10:29:22;67566.81;;;49.75;11.41
79138;BME280;68544;45.566;10.238;2023-06-22T10:31:47;67567.09;;;49.75;10.91
79138;BME280;68544;45.566;10.238;2023-06-22T10:34:12;67575.44;;;49.83;10.07
79138;BME280;68544;45.566;10.238;2023-06-22T10:36:38;67573.13;;;49.81;10.38
79138;BME280;68544;45.566;10.238;2023-06-22T10:39:03;67580.47;;;49.88;10.08
79138;BME280;68544;45.566;10.238;2023-06-22T10:41:28;67593.75;;;50.00;10.43
79138;BME280;68544;45.566;10.238;2023-06-22T10:43:55;67583.06;;;49.91;11.89
79138;BME280;68544;45.566;10.238;2023-06-22T10:46:20;67558.06;;;49.69;13.92
79138;BME280;68544;45.566;10.238;2023-06-22T10:48:45;67525.69;;;49.40;15.31
79138;BME280;68544;45.566;10.238;2023-06-22T10:51:11;67493.13;;;49.12;15.64
79138;BME280;68544;45.566;10.238;2023-06-22T10:53:36;67458.63;;;48.82;16.61
79138;BME280;68544;45.566;10.238;2023-06-22T10:56:01;67419.94;;;48.48;17.29
79138;BME280;68544;45.566;10.238;2023-06-22T10:58:26;67378.47;;;48.11;17.53
79138;BME280;68544;45.566;10.238;2023-06-22T11:00:51;67333.59;;;47.72;19.32
79138;BME280;68544;45.566;10.238;2023-06-22T11:03:17;67291.84;;;47.35;18.55
79138;BME280;68544;45.566;10.238;2023-06-22T11:05:42;67249.59;;;46.98;19.48
79138;BME280;68544;45.566;10.238;2023-06-22T11:08:07;67206.69;;;46.61;19.70
79138;BME280;68544;45.566;10.238;2023-06-22T11:10:32;67160.97;;;46.20;20.90
79138;BME280;68544;45.566;10.238;2023-06-22T11:12:57;67119.63;;;45.84;20.65
79138;BME280;68544;45.566;10.238;2023-06-22T11:15:23;67080.56;;;45.49;20.75
79138;BME280;68544;45.566;10.238;2023-06-22T11:17:48;67041.16;;;45.14;21.23
79138;BME280;68544;45.566;10.238;2023-06-22T11:20:14;66998.31;;;44.76;21.56
79138;BME280;68544;45.566;10.238;2023-06-22T11:22:39;66958.13;;;44.40;22.28
79138;BME280;68544;45.566;10.238;2023-06-22T11:25:05;66921.31;;;44.08;22.38
79138;BME280;68544;45.566;10.238;2023-06-22T11:27:30;66886.88;;;43.77;21.95
79138;BME280;68544;45.566;10.238;2023-06-22T11:29:56;66852.81;;;43.47;22.40
79138;BME280;68544;45.566;10.238;2023-06-22T11:32:21;66821.09;;;43.18;22.63
79138;BME280;68544;45.566;10.238;2023-06-22T11:34:46;66789.31;;;42.90;22.33
79138;BME280;68544;45.566;10.238;2023-06-22T11:37:11;66760.19;;;42.64;22.94
79138;BME280;68544;45.566;10.238;2023-06-22T11:39:36;66729.25;;;42.37;23.67
79138;BME280;68544;45.566;10.238;2023-06-22T11:42:02;66702.34;;;42.14;23.83
79138;BME280;68544;45.566;10.238;2023-06-22T11:44:27;66675.69;;;41.90;23.23
79138;BME280;68544;45.566;10.238;2023-06-22T11:46:52;66653.31;;;41.70;23.63
79138;BME280;68544;45.566;10.238;2023-06-22T11:49:17;66631.66;;;41.51;22.83
79138;BME280;68544;45.566;10.238;2023-06-22T11:51:42;66610.56;;;41.32;24.05
79138;BME280;68544;45.566;10.238;2023-06-22T11:54:08;66589.66;;;41.14;23.78
79138;BME280;68544;45.566;10.238;2023-06-22T11:56:33;66566.03;;;40.93;24.96
79138;BME280;68544;45.566;10.238;2023-06-22T11:58:58;66545.81;;;40.75;25.22
79138;BME280;68544;45.566;10.238;2023-06-22T12:01:23;66524.09;;;40.55;24.95
79138;BME280;68544;45.566;10.238;2023-06-22T12:03:48;66505.19;;;40.39;24.23
79138;BME280;68544;45.566;10.238;2023-06-22T12:06:14;66484.97;;;40.21;24.31
79138;BME280;68544;45.566;10.238;2023-06-22T12:08:39;66466.22;;;40.04;25.27
79138;BME280;68544;45.566;10.238;2023-06-22T12:11:04;66447.25;;;39.87;24.97
79138;BME280;68544;45.566;10.238;2023-06-22T12:13:29;66433.91;;;39.75;24.19
79138;BME280;68544;45.566;10.238;2023-06-22T12:15:55;66419.63;;;39.62;25.04
79138;BME280;68544;45.566;10.238;2023-06-22T12:18:20;66407.19;;;39.52;24.17
79138;BME280;68544;45.566;10.238;2023-06-22T12:20:48;66396.75;;;39.42;24.34
79138;BME280;68544;45.566;10.238;2023-06-22T12:23:14;66385.59;;;39.32;24.86
79138;BME280;68544;45.566;10.238;2023-06-22T12:25:39;66371.44;;;39.20;25.37
79138;BME280;68544;45.566;10.238;2023-06-22T12:28:04;66360.50;;;39.10;26.26
79138;BME280;68544;45.566;10.238;2023-06-22T12:30:30;66348.47;;;38.99;25.64
79138;BME280;68544;45.566;10.238;2023-06-22T12:32:55;66338.13;;;38.90;25.03
79138;BME280;68544;45.566;10.238;2023-06-22T12:35:20;66330.31;;;38.83;25.78
79138;BME280;68544;45.566;10.238;2023-06-22T12:37:45;66319.44;;;38.74;26.08
79138;BME280;68544;45.566;10.238;2023-06-22T12:40:11;66306.00;;;38.62;26.56
79138;BME280;68544;45.566;10.238;2023-06-22T12:42:36;66296.09;;;38.53;26.47
79138;BME280;68544;45.566;10.238;2023-06-22T12:45:01;66287.38;;;38.45;26.17
79138;BME280;68544;45.566;10.238;2023-06-22T12:47:26;66280.31;;;38.39;26.06
79138;BME280;68544;45.566;10.238;2023-06-22T12:49:52;66268.88;;;38.28;27.88
79138;BME280;68544;45.566;10.238;2023-06-22T12:52:17;66258.16;;;38.19;28.18
79138;BME280;68544;45.566;10.238;2023-06-22T12:54:42;66245.28;;;38.07;28.28
79138;BME280;68544;45.566;10.238;2023-06-22T12:57:07;66231.84;;;37.95;28.55
79138;BME280;68544;45.566;10.238;2023-06-22T12:59:33;66222.41;;;37.86;27.74
79138;BME280;68544;45.566;10.238;2023-06-22T13:01:58;66214.91;;;37.80;28.27
79138;BME280;68544;45.566;10.238;2023-06-22T13:04:23;66207.97;;;37.74;28.18
79138;BME280;68544;45.566;10.238;2023-06-22T13:06:49;66201.53;;;37.68;27.83
79138;BME280;68544;45.566;10.238;2023-06-22T13:09:14;66197.09;;;37.64;27.61